< < Back
Terminal Aerodrome Forecast


Current Version              Previous Versions:   1  2  3  4  5  6  7  8  9  

Terminal Aerodrome Forecast

979
FTUS44 KMOB 261732
TAFPNS
TAF
KPNS 261732Z 2618/2718 19013KT P6SM VCTS BKN023CB
      TEMPO 2618/2622 VRB20KT 2SM TSRA BKN025CB
     FM270000 21015KT 4SM BR VCSH OVC025
     FM270600 19008KT P6SM VCSH OVC050
      TEMPO 2712/2716 4SM SHRA OVC030=



Latest METAR

458
SAUS70 KWBC 261800 RRK
MTRPNS
METAR KPNS 261753Z 19008KT 2SM R17/4000VP6000FT RA BR SCT023 BKN035
27/25 A2999 RMK AO2 RAB40 SLP155 P0006 60013 T02720250 10311
20261 58001


USA.gov is the U.S. government's official web portal to all federal, state and local government web resources and services.